createdAt,value
2019-02-16T00:02:14.739Z,9.60
2019-02-16T00:04:45.493Z,9.60
2019-02-16T00:07:16.239Z,9.50
2019-02-16T00:09:47.255Z,9.40
2019-02-16T00:12:18.524Z,9.50
2019-02-16T00:14:49.243Z,9.40
2019-02-16T00:17:20.023Z,9.40
2019-02-16T00:19:51.109Z,9.30
2019-02-16T00:22:21.844Z,9.30
2019-02-16T00:24:52.584Z,9.30
2019-02-16T00:27:23.298Z,9.20
2019-02-16T00:29:54.059Z,9.20
2019-02-16T00:32:25.066Z,9.10
2019-02-16T00:34:56.475Z,9.10
2019-02-16T00:37:27.203Z,9.10
2019-02-16T00:39:57.976Z,9.00
2019-02-16T00:42:28.707Z,9.00
2019-02-16T00:44:59.754Z,9.00
2019-02-16T00:47:30.492Z,9.00
2019-02-16T00:50:01.578Z,8.90
2019-02-16T00:52:32.494Z,8.80
2019-02-16T00:55:03.439Z,8.90
2019-02-16T00:57:34.166Z,8.90
2019-02-16T01:00:05.870Z,8.90
2019-02-16T01:02:36.579Z,8.80
2019-02-16T01:05:07.510Z,8.70
2019-02-16T01:07:38.255Z,8.60
2019-02-16T01:10:09.803Z,8.60
2019-02-16T01:12:40.673Z,8.50
2019-02-16T01:15:11.484Z,8.50
2019-02-16T01:17:42.261Z,8.50
2019-02-16T01:20:13.240Z,8.50
2019-02-16T01:22:44.223Z,8.40
2019-02-16T01:25:15.320Z,8.40
2019-02-16T01:27:46.028Z,8.40
2019-02-16T01:30:16.838Z,8.40
2019-02-16T01:32:48.056Z,8.30
2019-02-16T01:35:19.008Z,8.30
2019-02-16T01:37:49.786Z,8.30
2019-02-16T01:40:21.135Z,8.10
2019-02-16T01:42:51.936Z,8.10
2019-02-16T01:45:22.939Z,8.10
2019-02-16T01:47:53.653Z,8.10
2019-02-16T01:50:25.375Z,8.10
2019-02-16T01:52:56.456Z,8.10
2019-02-16T01:55:27.455Z,8.10
2019-02-16T01:57:58.215Z,8.00
2019-02-16T02:00:29.296Z,8.10
2019-02-16T02:03:00.795Z,8.10
2019-02-16T02:05:31.559Z,8.20
2019-02-16T02:08:02.301Z,8.20
2019-02-16T02:10:33.284Z,8.20
2019-02-16T02:13:04.009Z,8.30
2019-02-16T02:15:34.825Z,8.40
2019-02-16T02:18:06.137Z,8.40
2019-02-16T02:20:36.896Z,8.50
2019-02-16T02:23:07.802Z,8.50
2019-02-16T02:25:38.554Z,8.60
2019-02-16T02:28:09.323Z,8.50
2019-02-16T02:30:40.751Z,8.50
2019-02-16T02:33:11.536Z,8.40
2019-02-16T02:35:42.342Z,8.50
2019-02-16T02:38:13.146Z,8.50
2019-02-16T02:40:43.877Z,8.50
2019-02-16T02:43:14.606Z,8.50
2019-02-16T02:45:45.988Z,8.60
2019-02-16T02:48:16.756Z,8.50
2019-02-16T02:50:48.073Z,8.50
2019-02-16T02:53:18.872Z,8.50
2019-02-16T02:55:49.644Z,8.60
2019-02-16T02:58:20.355Z,8.60
2019-02-16T03:00:51.089Z,8.60
2019-02-16T03:03:21.909Z,8.60
2019-02-16T03:05:53.067Z,8.50
2019-02-16T03:08:24.039Z,8.50
2019-02-16T03:10:55.107Z,8.50
2019-02-16T03:13:25.827Z,8.50
2019-02-16T03:15:56.906Z,8.40
2019-02-16T03:18:28.161Z,8.50
2019-02-16T03:20:59.148Z,8.50
2019-02-16T03:23:30.508Z,8.60
2019-02-16T03:26:21.866Z,8.50
2019-02-16T03:29:06.887Z,8.40
2019-02-16T03:32:12.325Z,8.40
2019-02-16T03:35:28.550Z,8.30
2019-02-16T03:38:35.322Z,8.30
2019-02-16T03:41:06.489Z,8.20
2019-02-16T03:43:37.254Z,8.10
2019-02-16T03:46:08.022Z,8.10
2019-02-16T03:48:38.861Z,8.10
2019-02-16T03:51:09.666Z,8.00
2019-02-16T03:53:40.392Z,7.90
2019-02-16T03:56:11.240Z,7.80
2019-02-16T03:58:41.963Z,7.70
2019-02-16T04:01:12.890Z,7.60
2019-02-16T04:03:43.996Z,7.60
2019-02-16T04:06:14.973Z,7.60
2019-02-16T04:08:46.101Z,7.60
2019-02-16T04:11:16.822Z,7.50
2019-02-16T04:13:47.534Z,7.50
2019-02-16T04:16:18.298Z,7.40
2019-02-16T04:18:49.075Z,7.30
2019-02-16T04:21:20.081Z,7.20
2019-02-16T04:23:50.826Z,7.20
2019-02-16T04:26:21.575Z,7.10
2019-02-16T04:28:52.722Z,7.00
2019-02-16T04:31:23.843Z,6.90
2019-02-16T04:33:54.917Z,6.90
2019-02-16T04:36:26.015Z,6.90
2019-02-16T04:38:56.772Z,6.90
2019-02-16T04:41:28.802Z,7.00
2019-02-16T04:43:59.834Z,7.00
2019-02-16T04:46:30.571Z,7.00
2019-02-16T04:49:01.371Z,7.00
2019-02-16T04:51:32.101Z,7.00
2019-02-16T04:54:03.356Z,7.00
2019-02-16T04:56:34.404Z,7.00
2019-02-16T04:59:05.250Z,7.10
2019-02-16T05:01:36.335Z,7.10
2019-02-16T05:04:07.492Z,7.10
2019-02-16T05:06:38.246Z,7.10
2019-02-16T05:09:09.407Z,7.10
2019-02-16T05:11:40.139Z,7.00
2019-02-16T05:14:10.901Z,7.00
2019-02-16T05:16:41.718Z,7.00
2019-02-16T05:19:12.459Z,7.00
2019-02-16T05:21:43.269Z,7.00
2019-02-16T05:24:14.315Z,7.00
2019-02-16T05:26:45.608Z,7.00
2019-02-16T05:29:16.415Z,7.00
2019-02-16T05:31:47.376Z,7.00
2019-02-16T05:34:18.083Z,7.00
2019-02-16T05:36:48.851Z,7.10
2019-02-16T05:39:19.597Z,7.10
2019-02-16T05:41:50.352Z,7.20
2019-02-16T05:44:21.118Z,7.10
2019-02-16T05:46:52.595Z,7.00
2019-02-16T05:49:23.350Z,6.90
2019-02-16T05:51:54.079Z,6.90
2019-02-16T05:54:24.789Z,7.00
2019-02-16T05:56:56.039Z,7.10
2019-02-16T05:59:26.895Z,7.10
2019-02-16T06:01:57.752Z,7.20
2019-02-16T06:04:28.914Z,7.20
2019-02-16T06:07:00.236Z,7.20
2019-02-16T06:09:31.239Z,7.20
2019-02-16T06:12:01.976Z,7.20
2019-02-16T06:14:32.980Z,7.10
2019-02-16T06:17:03.802Z,7.10
2019-02-16T06:19:34.535Z,7.10
2019-02-16T06:22:05.275Z,7.10
2019-02-16T06:24:36.170Z,7.20
2019-02-16T06:27:06.952Z,7.10
2019-02-16T06:29:37.991Z,7.00
2019-02-16T06:32:09.982Z,7.00
2019-02-16T06:34:41.038Z,7.00
2019-02-16T06:37:22.068Z,7.00
2019-02-16T06:39:52.914Z,7.00
2019-02-16T06:42:24.999Z,7.00
2019-02-16T06:44:55.733Z,7.00
2019-02-16T06:47:27.330Z,6.90
2019-02-16T06:49:58.046Z,6.90
2019-02-16T06:52:28.865Z,6.90
2019-02-16T06:55:00.456Z,7.00
2019-02-16T06:57:32.258Z,6.90
2019-02-16T07:00:03.568Z,6.90
2019-02-16T07:02:35.330Z,6.90
2019-02-16T07:05:06.210Z,6.90
2019-02-16T07:07:37.189Z,6.90
2019-02-16T07:10:08.619Z,7.10
2019-02-16T07:12:41.116Z,7.20
2019-02-16T07:15:12.417Z,7.20
2019-02-16T07:17:51.236Z,7.10
2019-02-16T07:20:23.808Z,7.20
2019-02-16T07:22:54.654Z,7.10
2019-02-16T07:25:25.609Z,7.20
2019-02-16T07:27:56.671Z,7.30
2019-02-16T07:30:27.426Z,7.30
2019-02-16T07:32:58.162Z,7.40
2019-02-16T07:35:29.045Z,7.50
2019-02-16T07:37:59.797Z,7.80
2019-02-16T07:40:30.538Z,8.10
2019-02-16T07:43:03.640Z,8.40
2019-02-16T07:45:45.671Z,9.00
2019-02-16T07:48:20.630Z,9.60
2019-02-16T07:51:09.403Z,10.20
2019-02-16T07:53:53.470Z,11.20
2019-02-16T07:56:32.066Z,12.40
2019-02-16T07:59:10.498Z,14.10
2019-02-16T08:02:07.429Z,15.10
2019-02-16T08:05:11.860Z,15.50
2019-02-16T08:07:56.009Z,15.90
2019-02-16T08:10:45.839Z,16.50
2019-02-16T08:13:23.595Z,16.20
2019-02-16T08:16:25.978Z,16.70
2019-02-16T08:19:23.116Z,17.50
2019-02-16T08:22:03.002Z,18.30
2019-02-16T08:24:52.825Z,18.70
2019-02-16T08:27:41.422Z,19.40
2019-02-16T08:30:25.871Z,19.50
2019-02-16T08:33:06.322Z,18.00
2019-02-16T08:35:47.207Z,16.00
2019-02-16T08:38:46.430Z,16.20
2019-02-16T08:41:34.964Z,17.20
2019-02-16T08:44:17.579Z,18.50
2019-02-16T08:47:06.291Z,19.50
2019-02-16T08:49:56.744Z,20.40
2019-02-16T08:52:34.835Z,21.30
2019-02-16T08:55:27.596Z,22.30
2019-02-16T08:58:07.138Z,23.10
2019-02-16T09:01:06.007Z,23.30
2019-02-16T09:04:14.243Z,24.20
2019-02-16T09:06:51.215Z,24.10
2019-02-16T09:09:39.767Z,23.50
2019-02-16T09:12:17.197Z,23.00
2019-02-16T09:14:53.936Z,23.30
2019-02-16T09:17:42.672Z,23.50
2019-02-16T09:20:31.502Z,24.30
2019-02-16T09:23:26.756Z,25.40
2019-02-16T09:26:15.698Z,27.40
2019-02-16T09:29:12.624Z,28.70
2019-02-16T09:32:09.096Z,29.50
2019-02-16T09:34:50.667Z,28.70
2019-02-16T09:37:39.215Z,28.60
2019-02-16T09:40:31.285Z,29.10
2019-02-16T09:43:09.803Z,29.80
2019-02-16T09:46:06.245Z,30.10
2019-02-16T09:48:43.110Z,29.90
2019-02-16T09:51:20.167Z,30.20
2019-02-16T09:54:22.688Z,29.60
2019-02-16T09:57:03.915Z,28.70
2019-02-16T09:59:55.682Z,28.90
2019-02-16T10:02:35.742Z,28.30
2019-02-16T10:05:24.380Z,27.90
2019-02-16T10:08:22.652Z,28.10
2019-02-16T10:11:04.057Z,28.40
2019-02-16T10:13:54.163Z,28.30
2019-02-16T10:16:44.141Z,28.00
2019-02-16T10:19:28.471Z,28.00
2019-02-16T10:22:27.262Z,28.00
2019-02-16T10:25:18.208Z,27.30
2019-02-16T10:28:06.591Z,27.30
2019-02-16T10:30:55.146Z,27.60
2019-02-16T10:33:42.083Z,27.70
2019-02-16T10:36:26.854Z,28.10
2019-02-16T10:39:14.298Z,28.50
2019-02-16T10:42:04.205Z,27.90
2019-02-16T10:44:42.088Z,26.60
2019-02-16T10:47:21.562Z,25.80
2019-02-16T10:50:03.071Z,25.80
2019-02-16T10:52:50.963Z,25.40
2019-02-16T10:55:48.272Z,24.60
2019-02-16T10:58:34.666Z,24.60
2019-02-16T11:01:12.085Z,24.70
2019-02-16T11:03:56.512Z,24.70
2019-02-16T11:06:33.172Z,24.50
2019-02-16T11:09:22.766Z,23.90
2019-02-16T11:12:31.697Z,22.80
2019-02-16T11:15:25.132Z,22.00
2019-02-16T11:18:17.024Z,21.50
2019-02-16T11:21:09.961Z,21.60
2019-02-16T11:23:58.205Z,22.00
2019-02-16T11:26:41.606Z,21.80
2019-02-16T11:29:31.646Z,21.70
2019-02-16T11:32:21.821Z,21.50
2019-02-16T11:35:23.300Z,21.40
2019-02-16T11:38:03.468Z,21.50
2019-02-16T11:41:05.824Z,21.90
2019-02-16T11:43:58.317Z,21.80
2019-02-16T11:46:48.491Z,21.60
2019-02-16T11:49:27.279Z,21.70
2019-02-16T11:52:14.585Z,21.40
2019-02-16T11:55:14.052Z,21.10
2019-02-16T11:57:58.871Z,21.50
2019-02-16T12:00:49.165Z,22.00
2019-02-16T12:03:37.849Z,22.00
2019-02-16T12:06:24.273Z,22.00
2019-02-16T12:09:05.783Z,21.70
2019-02-16T12:11:59.994Z,21.20
2019-02-16T12:14:39.128Z,21.30
2019-02-16T12:17:24.231Z,21.30
2019-02-16T12:20:19.951Z,21.40
2019-02-16T12:23:12.632Z,21.20
2019-02-16T12:25:55.989Z,21.20
2019-02-16T12:28:37.850Z,20.80
2019-02-16T12:31:26.462Z,21.20
2019-02-16T12:34:22.109Z,21.30
2019-02-16T12:37:11.963Z,21.30
2019-02-16T12:39:48.362Z,21.80
2019-02-16T12:42:37.187Z,22.70
2019-02-16T12:45:34.107Z,22.70
2019-02-16T12:48:10.968Z,22.60
2019-02-16T12:51:06.708Z,22.30
2019-02-16T12:53:59.958Z,21.90
2019-02-16T12:56:41.873Z,21.70
2019-02-16T12:59:17.173Z,21.40
2019-02-16T13:01:56.851Z,21.00
2019-02-16T13:04:39.856Z,20.90
2019-02-16T13:07:21.067Z,20.60
2019-02-16T13:10:11.092Z,20.40
2019-02-16T13:12:57.901Z,20.10
2019-02-16T13:15:39.625Z,19.90
2019-02-16T13:18:25.555Z,19.90
2019-02-16T13:21:18.472Z,20.00
2019-02-16T13:23:59.285Z,20.10
2019-02-16T13:26:48.882Z,20.10
2019-02-16T13:29:27.435Z,19.90
2019-02-16T13:32:15.424Z,19.90
2019-02-16T13:34:59.464Z,20.10
2019-02-16T13:37:48.339Z,20.30
2019-02-16T13:40:35.400Z,20.60
2019-02-16T13:43:12.466Z,20.70
2019-02-16T13:45:53.686Z,20.80
2019-02-16T13:48:35.177Z,20.70
2019-02-16T13:51:14.264Z,20.70
2019-02-16T13:54:10.130Z,20.50
2019-02-16T13:57:09.144Z,20.40
2019-02-16T14:00:02.084Z,20.20
2019-02-16T14:03:01.484Z,20.20
2019-02-16T14:05:45.247Z,20.00
2019-02-16T14:08:25.960Z,20.10
2019-02-16T14:11:03.110Z,20.70
2019-02-16T14:14:02.270Z,20.70
2019-02-16T14:16:40.162Z,20.10
2019-02-16T14:19:12.303Z,19.70
2019-02-16T14:21:45.914Z,19.50
2019-02-16T14:24:18.716Z,19.60
2019-02-16T14:26:49.543Z,19.60
2019-02-16T14:29:20.348Z,19.50
2019-02-16T14:31:51.199Z,19.40
2019-02-16T14:34:22.941Z,19.40
2019-02-16T14:36:53.729Z,19.50
2019-02-16T14:39:30.024Z,19.30
2019-02-16T14:42:01.183Z,19.20
2019-02-16T14:44:31.975Z,19.10
2019-02-16T14:47:03.067Z,19.10
2019-02-16T14:49:34.239Z,19.10
2019-02-16T14:52:05.320Z,18.90
2019-02-16T14:54:36.106Z,18.90
2019-02-16T14:57:06.670Z,18.80
2019-02-16T14:59:37.543Z,18.70
2019-02-16T15:02:08.612Z,18.70
2019-02-16T15:04:39.392Z,18.60
2019-02-16T15:07:10.191Z,18.50
2019-02-16T15:09:40.981Z,18.50
2019-02-16T15:12:13.133Z,18.40
2019-02-16T15:14:43.904Z,18.40
2019-02-16T15:17:14.656Z,18.40
2019-02-16T15:20:05.231Z,18.40
2019-02-16T15:22:36.016Z,18.30
2019-02-16T15:25:07.662Z,18.30
2019-02-16T15:27:38.509Z,18.20
2019-02-16T15:30:14.549Z,18.20
2019-02-16T15:32:46.560Z,18.20
2019-02-16T15:35:20.406Z,18.10
2019-02-16T15:37:50.794Z,17.90
2019-02-16T15:40:21.674Z,17.70
2019-02-16T15:42:52.530Z,17.60
2019-02-16T15:45:24.320Z,17.40
2019-02-16T15:47:55.087Z,17.50
2019-02-16T15:50:26.196Z,17.30
2019-02-16T15:52:56.948Z,17.20
2019-02-16T15:55:27.725Z,17.00
2019-02-16T15:57:58.485Z,16.80
2019-02-16T16:00:29.399Z,16.70
2019-02-16T16:03:00.227Z,16.50
2019-02-16T16:05:31.356Z,16.30
2019-02-16T16:08:19.040Z,16.20
2019-02-16T16:11:02.185Z,16.00
2019-02-16T16:13:55.194Z,15.80
2019-02-16T16:16:41.601Z,15.70
2019-02-16T16:19:20.831Z,15.50
2019-02-16T16:22:01.719Z,15.30
2019-02-16T16:24:47.310Z,15.10
2019-02-16T16:27:24.294Z,14.90
2019-02-16T16:30:23.398Z,14.70
2019-02-16T16:33:03.499Z,14.50
2019-02-16T16:35:50.461Z,14.30
2019-02-16T16:38:39.327Z,14.10
2019-02-16T16:41:28.160Z,13.90
2019-02-16T16:44:18.005Z,13.70
2019-02-16T16:47:04.847Z,13.50
2019-02-16T16:49:48.832Z,13.30
2019-02-16T16:52:35.115Z,13.10
2019-02-16T16:55:17.006Z,12.90
2019-02-16T16:58:05.503Z,12.70
2019-02-16T17:01:03.822Z,12.50
2019-02-16T17:03:48.380Z,12.30
2019-02-16T17:06:34.479Z,12.20
2019-02-16T17:09:25.031Z,12.10
2019-02-16T17:12:02.439Z,12.00
2019-02-16T17:14:46.811Z,11.80
2019-02-16T17:17:35.657Z,11.60
2019-02-16T17:20:24.895Z,11.50
2019-02-16T17:23:17.648Z,11.40
2019-02-16T17:26:18.551Z,11.20
2019-02-16T17:29:11.884Z,11.10
2019-02-16T17:32:04.773Z,11.00
2019-02-16T17:34:54.652Z,10.80
2019-02-16T17:37:32.828Z,10.70
2019-02-16T17:40:13.915Z,10.60
2019-02-16T17:43:02.585Z,10.40
2019-02-16T17:45:51.363Z,10.30
2019-02-16T17:48:39.893Z,10.20
2019-02-16T17:51:35.778Z,10.10
2019-02-16T17:54:17.098Z,10.00
2019-02-16T17:57:07.345Z,9.80
2019-02-16T17:59:42.928Z,9.70
2019-02-16T18:02:31.685Z,9.60
2019-02-16T18:05:27.506Z,9.60
2019-02-16T18:08:12.474Z,9.50
2019-02-16T18:11:03.913Z,9.40
2019-02-16T18:13:48.527Z,9.30
2019-02-16T18:16:32.923Z,9.30
2019-02-16T18:19:15.013Z,9.20
2019-02-16T18:21:57.106Z,9.20
2019-02-16T18:24:43.432Z,9.00
2019-02-16T18:27:32.139Z,9.00
2019-02-16T18:30:20.612Z,8.90
2019-02-16T18:33:09.295Z,8.80
2019-02-16T18:36:02.603Z,8.70
2019-02-16T18:38:55.267Z,8.70
2019-02-16T18:41:42.074Z,8.70
2019-02-16T18:44:35.036Z,8.60
2019-02-16T18:47:29.803Z,8.50
2019-02-16T18:50:25.575Z,8.50
2019-02-16T18:53:06.371Z,8.40
2019-02-16T18:56:02.553Z,8.40
2019-02-16T18:58:41.703Z,8.30
2019-02-16T19:01:44.045Z,8.20
2019-02-16T19:04:27.534Z,8.20
2019-02-16T19:07:10.632Z,8.20
2019-02-16T19:10:06.784Z,8.10
2019-02-16T19:13:00.733Z,8.10
2019-02-16T19:15:56.758Z,8.00
2019-02-16T19:18:37.341Z,7.90
2019-02-16T19:21:15.114Z,7.80
2019-02-16T19:23:51.268Z,7.90
2019-02-16T19:26:26.901Z,7.80
2019-02-16T19:29:16.031Z,7.80
2019-02-16T19:32:03.211Z,7.70
2019-02-16T19:34:52.592Z,7.70
2019-02-16T19:37:45.172Z,7.60
2019-02-16T19:40:33.784Z,7.50
2019-02-16T19:43:39.235Z,7.50
2019-02-16T19:46:20.396Z,7.50
2019-02-16T19:49:14.159Z,7.40
2019-02-16T19:52:07.700Z,7.40
2019-02-16T19:55:06.920Z,7.30
2019-02-16T19:57:52.328Z,7.30
2019-02-16T20:00:35.771Z,7.20
2019-02-16T20:03:25.632Z,7.20
2019-02-16T20:06:14.014Z,7.10
2019-02-16T20:08:56.821Z,7.00
2019-02-16T20:11:53.899Z,6.90
2019-02-16T20:14:39.829Z,6.90
2019-02-16T20:17:17.755Z,6.80
2019-02-16T20:20:16.664Z,6.80
2019-02-16T20:23:24.700Z,6.80
2019-02-16T20:26:14.406Z,6.80
2019-02-16T20:28:53.036Z,6.80
2019-02-16T20:31:30.547Z,6.70
2019-02-16T20:34:23.632Z,6.70
2019-02-16T20:37:07.247Z,6.60
2019-02-16T20:39:59.893Z,6.60
2019-02-16T20:42:45.184Z,6.50
2019-02-16T20:45:20.909Z,6.50
2019-02-16T20:47:59.963Z,6.50
2019-02-16T20:50:55.654Z,6.40
2019-02-16T20:53:44.498Z,6.40
2019-02-16T20:56:29.621Z,6.30
2019-02-16T20:59:19.512Z,6.30
2019-02-16T21:02:09.555Z,6.20
2019-02-16T21:04:49.157Z,6.20
2019-02-16T21:07:57.468Z,6.20
2019-02-16T21:10:46.280Z,6.20
2019-02-16T21:13:25.808Z,6.20
2019-02-16T21:16:05.740Z,6.20
2019-02-16T21:18:47.280Z,6.20
2019-02-16T21:21:35.770Z,6.20
2019-02-16T21:24:22.781Z,6.20
2019-02-16T21:27:18.560Z,6.10
2019-02-16T21:30:20.405Z,6.10
2019-02-16T21:33:19.567Z,6.00
2019-02-16T21:36:11.031Z,5.90
2019-02-16T21:39:03.169Z,5.90
2019-02-16T21:41:49.562Z,5.90
2019-02-16T21:44:44.279Z,5.80
2019-02-16T21:47:46.434Z,5.70
2019-02-16T21:50:35.178Z,5.70
2019-02-16T21:53:21.311Z,5.70
2019-02-16T21:56:05.220Z,5.70
2019-02-16T21:58:54.020Z,5.70
2019-02-16T22:01:55.950Z,5.60
2019-02-16T22:04:32.795Z,5.60
2019-02-16T22:07:23.049Z,5.60
2019-02-16T22:10:07.141Z,5.60
2019-02-16T22:12:55.279Z,5.50
2019-02-16T22:15:26.299Z,5.50
2019-02-16T22:17:57.088Z,5.50
2019-02-16T22:20:27.992Z,5.50
2019-02-16T22:22:59.075Z,5.50
2019-02-16T22:25:29.830Z,5.50
2019-02-16T22:28:00.586Z,5.50
2019-02-16T22:30:31.332Z,5.40
2019-02-16T22:33:02.107Z,5.30
2019-02-16T22:35:32.851Z,5.30
2019-02-16T22:38:03.749Z,5.40
2019-02-16T22:40:34.821Z,5.40
2019-02-16T22:43:06.897Z,5.50
2019-02-16T22:45:37.897Z,5.60
2019-02-16T22:48:14.275Z,5.60
2019-02-16T22:50:45.323Z,5.70
2019-02-16T22:53:21.261Z,5.70
2019-02-16T22:55:57.097Z,5.60
2019-02-16T22:58:31.682Z,5.60
2019-02-16T23:01:06.190Z,5.50
2019-02-16T23:03:37.693Z,5.50
2019-02-16T23:06:08.596Z,5.50
2019-02-16T23:08:39.691Z,5.40
2019-02-16T23:11:10.486Z,5.40
2019-02-16T23:13:41.351Z,5.40
2019-02-16T23:16:12.271Z,5.40
2019-02-16T23:18:43.122Z,5.30
2019-02-16T23:21:18.050Z,5.30
2019-02-16T23:23:49.005Z,5.30
2019-02-16T23:26:19.743Z,5.30
2019-02-16T23:28:53.530Z,5.30
2019-02-16T23:31:24.620Z,5.40
2019-02-16T23:33:55.571Z,5.50
2019-02-16T23:36:26.387Z,5.70
2019-02-16T23:38:57.537Z,6.00
2019-02-16T23:41:28.698Z,6.20
2019-02-16T23:43:59.529Z,6.40
2019-02-16T23:46:30.271Z,6.40
2019-02-16T23:49:01.039Z,6.50
2019-02-16T23:51:32.124Z,6.60
2019-02-16T23:54:03.186Z,6.60
2019-02-16T23:56:33.970Z,6.60
2019-02-16T23:59:04.767Z,6.50
